Oswego, Kansas
Current Conditions -  °F | °C
As of 12:52 AM on Friday 31 Oct 2014 (Local Time) from KPPF Reporting Station
Clear Clear  
Wind Chill: 51°   Ceiling: Unl
Heat Index: 51°   Visibility: 10mi
Dew Point: 42°   Wind: 12mph
Humidity: 71%   Direction: 360°N
Pressure: 30.22"   Gusts: NA
Location:  37.17°N, 95.11°W
Report Text: KPPF 310552Z AUTO 36010KT 10SM CLR 11/06 A3022 RMK AO2 SLP230 T01060056 10150 20089 402390056 51018
Loading
Personal Weather Stations






























Interactive Weather Map
Tropical Storm Tracking
New forecast layout! Learn more

10-Day Weather Forecast

Advertisements
Track Severe Weather on mobile